createdAt,value
2023-01-08T00:02:03.435Z,5.81
2023-01-08T00:07:12.076Z,5.84
2023-01-08T00:12:14.326Z,5.86
2023-01-08T00:17:16.130Z,5.82
2023-01-08T00:22:18.016Z,5.81
2023-01-08T00:27:19.863Z,5.79
2023-01-08T00:32:22.142Z,5.80
2023-01-08T00:37:24.215Z,5.88
2023-01-08T00:42:26.124Z,6.10
2023-01-08T00:47:27.967Z,6.34
2023-01-08T00:52:29.756Z,6.55
2023-01-08T00:57:36.356Z,6.69
2023-01-08T01:02:39.067Z,6.80
2023-01-08T01:07:42.478Z,6.87
2023-01-08T01:12:44.692Z,6.94
2023-01-08T01:17:47.150Z,7.00
2023-01-08T01:22:49.182Z,7.00
2023-01-08T01:27:51.140Z,6.90
2023-01-08T01:32:52.992Z,6.69
2023-01-08T01:37:54.793Z,6.55
2023-01-08T01:42:56.669Z,6.42
2023-01-08T01:48:05.982Z,6.34
2023-01-08T01:53:37.917Z,6.27
2023-01-08T01:58:39.731Z,6.15
2023-01-08T02:03:41.650Z,6.06
2023-01-08T02:08:57.021Z,6.03
2023-01-08T02:14:12.878Z,6.01
2023-01-08T02:19:36.978Z,5.97
2023-01-08T02:24:53.370Z,5.93
2023-01-08T02:29:57.504Z,5.91
2023-01-08T02:34:59.746Z,5.85
2023-01-08T02:40:13.950Z,5.78
2023-01-08T02:45:35.941Z,5.77
2023-01-08T02:50:56.544Z,5.77
2023-01-08T02:56:02.556Z,5.79
2023-01-08T03:01:08.304Z,5.76
2023-01-08T03:12:07.294Z,5.69
2023-01-08T03:17:18.431Z,5.66
2023-01-08T03:22:22.709Z,5.66
2023-01-08T03:27:33.723Z,5.67
2023-01-08T03:32:43.797Z,5.68
2023-01-08T03:38:03.553Z,5.69
2023-01-08T03:43:05.394Z,5.70
2023-01-08T03:48:08.630Z,5.71
2023-01-08T03:53:10.568Z,5.77
2023-01-08T03:58:21.243Z,5.86
2023-01-08T04:03:24.781Z,5.94
2023-01-08T04:08:26.784Z,5.94
2023-01-08T04:13:28.674Z,5.88
2023-01-08T04:18:31.117Z,5.88
2023-01-08T04:23:33.185Z,5.95
2023-01-08T04:28:35.818Z,5.99
2023-01-08T04:33:37.719Z,6.07
2023-01-08T04:38:47.202Z,6.15
2023-01-08T04:43:49.398Z,6.18
2023-01-08T04:49:25.211Z,6.18
2023-01-08T04:54:27.184Z,6.19
2023-01-08T04:59:29.411Z,6.19
2023-01-08T05:04:31.539Z,6.21
2023-01-08T05:09:34.083Z,6.20
2023-01-08T05:14:35.862Z,6.21
2023-01-08T05:19:38.426Z,6.20
2023-01-08T05:24:40.568Z,6.17
2023-01-08T05:29:42.573Z,6.13
2023-01-08T05:34:45.214Z,6.14
2023-01-08T05:39:47.026Z,6.14
2023-01-08T05:44:49.027Z,6.11
2023-01-08T05:50:01.648Z,6.04
2023-01-08T05:55:04.703Z,5.99
2023-01-08T06:00:08.477Z,5.93
2023-01-08T06:05:13.854Z,5.91
2023-01-08T06:10:16.254Z,5.91
2023-01-08T06:15:18.986Z,5.84
2023-01-08T06:20:20.822Z,5.75
2023-01-08T06:25:22.900Z,5.72
2023-01-08T06:30:24.748Z,5.74
2023-01-08T06:35:27.534Z,5.76
2023-01-08T06:40:29.652Z,5.75
2023-01-08T06:45:32.772Z,5.74
2023-01-08T06:50:35.035Z,5.76
2023-01-08T06:55:38.493Z,5.78
2023-01-08T07:00:40.933Z,5.81
2023-01-08T07:05:43.002Z,5.89
2023-01-08T07:10:45.226Z,5.97
2023-01-08T07:15:47.588Z,6.05
2023-01-08T07:20:49.597Z,6.10
2023-01-08T07:25:51.512Z,6.14
2023-01-08T07:30:53.447Z,6.17
2023-01-08T07:41:13.569Z,6.21
2023-01-08T07:46:16.363Z,6.29
2023-01-08T07:51:18.789Z,6.32
2023-01-08T07:56:20.607Z,6.33
2023-01-08T08:01:23.050Z,6.32
2023-01-08T08:06:25.166Z,6.31
2023-01-08T08:11:52.252Z,6.30
2023-01-08T08:16:54.330Z,6.33
2023-01-08T08:21:56.167Z,6.35
2023-01-08T08:26:58.147Z,6.36
2023-01-08T08:32:00.017Z,6.39
2023-01-08T08:37:02.118Z,6.48
2023-01-08T08:42:04.035Z,6.60
2023-01-08T08:47:11.744Z,6.74
2023-01-08T08:52:13.866Z,6.89
2023-01-08T08:57:15.764Z,6.98
2023-01-08T09:02:17.716Z,7.01
2023-01-08T09:07:19.699Z,7.04
2023-01-08T09:12:21.453Z,7.09
2023-01-08T09:17:23.376Z,7.15
2023-01-08T09:22:25.453Z,7.19
2023-01-08T09:27:27.279Z,7.22
2023-01-08T09:32:29.238Z,7.26
2023-01-08T09:37:31.566Z,7.32
2023-01-08T09:42:34.267Z,7.42
2023-01-08T09:47:41.442Z,7.50
2023-01-08T09:52:43.942Z,7.56
2023-01-08T09:57:47.220Z,7.61
2023-01-08T10:02:50.085Z,7.62
2023-01-08T10:07:51.952Z,7.63
2023-01-08T10:12:55.525Z,7.64
2023-01-08T10:18:07.901Z,7.72
2023-01-08T10:23:19.390Z,7.82
2023-01-08T10:28:35.449Z,7.92
2023-01-08T10:39:06.469Z,8.05
2023-01-08T10:44:17.785Z,8.09
2023-01-08T10:49:19.812Z,8.14
2023-01-08T10:54:36.786Z,8.17
2023-01-08T10:59:42.780Z,8.18
2023-01-08T11:04:51.880Z,8.18
2023-01-08T11:09:54.970Z,8.18
2023-01-08T11:14:57.574Z,8.18
2023-01-08T11:20:30.858Z,8.24
2023-01-08T11:25:35.775Z,8.28
2023-01-08T11:30:39.720Z,8.34
2023-01-08T11:35:50.601Z,8.38
2023-01-08T11:41:11.244Z,8.47
2023-01-08T11:46:22.265Z,8.50
2023-01-08T11:51:36.903Z,8.51
2023-01-08T11:56:57.062Z,8.49
2023-01-08T12:02:26.697Z,8.52
2023-01-08T12:07:50.162Z,8.54
2023-01-08T12:12:57.886Z,8.60
2023-01-08T12:18:20.926Z,8.65
2023-01-08T12:23:44.208Z,8.65
2023-01-08T12:29:10.188Z,8.64
2023-01-08T12:34:28.529Z,8.62
2023-01-08T12:39:34.139Z,8.61
2023-01-08T12:44:37.296Z,8.57
2023-01-08T12:49:47.857Z,8.55
2023-01-08T12:54:49.722Z,8.54
2023-01-08T13:00:02.002Z,8.53
2023-01-08T13:05:22.515Z,8.57
2023-01-08T13:10:41.572Z,8.57
2023-01-08T13:15:43.977Z,8.58
2023-01-08T13:21:02.129Z,8.58
2023-01-08T13:26:06.699Z,8.57
2023-01-08T13:31:22.875Z,8.56
2023-01-08T13:36:27.388Z,8.54
2023-01-08T13:41:40.157Z,8.52
2023-01-08T13:46:44.381Z,8.48
2023-01-08T13:51:47.564Z,8.44
2023-01-08T13:56:54.547Z,8.39
2023-01-08T14:02:01.352Z,8.34
2023-01-08T14:07:16.125Z,8.27
2023-01-08T14:12:23.595Z,8.21
2023-01-08T14:17:30.664Z,8.15
2023-01-08T14:22:35.007Z,8.08
2023-01-08T14:27:36.854Z,8.03
2023-01-08T14:32:44.448Z,7.98
2023-01-08T14:37:46.447Z,7.94
2023-01-08T14:42:53.786Z,7.91
2023-01-08T14:48:01.921Z,7.89
2023-01-08T14:53:28.869Z,7.85
2023-01-08T14:58:37.239Z,7.83
2023-01-08T15:03:42.707Z,7.82
2023-01-08T15:08:50.786Z,7.80
2023-01-08T15:13:59.390Z,7.74
2023-01-08T15:19:06.117Z,7.70
2023-01-08T15:24:08.726Z,7.62
2023-01-08T15:29:20.235Z,7.58
2023-01-08T15:34:22.101Z,7.58
2023-01-08T15:39:24.146Z,7.58
2023-01-08T15:44:26.124Z,7.57
2023-01-08T15:49:27.939Z,7.56
2023-01-08T15:54:30.444Z,7.56
2023-01-08T15:59:41.204Z,7.54
2023-01-08T16:04:43.360Z,7.53
2023-01-08T16:09:45.188Z,7.53
2023-01-08T16:14:47.051Z,7.52
2023-01-08T16:19:48.817Z,7.48
2023-01-08T16:30:12.015Z,7.43
2023-01-08T16:35:13.865Z,7.40
2023-01-08T16:40:16.871Z,7.36
2023-01-08T16:45:18.767Z,7.38
2023-01-08T16:50:20.664Z,7.38
2023-01-08T16:55:22.423Z,7.38
2023-01-08T17:00:24.316Z,7.39
2023-01-08T17:05:26.169Z,7.38
2023-01-08T17:10:28.043Z,7.32
2023-01-08T17:15:55.835Z,7.28
2023-01-08T17:20:57.905Z,7.22
2023-01-08T17:26:07.321Z,7.17
2023-01-08T17:31:14.025Z,7.12
2023-01-08T17:36:27.103Z,7.11
2023-01-08T17:41:47.867Z,7.07
2023-01-08T17:46:49.955Z,6.99
2023-01-08T17:51:53.515Z,6.95
2023-01-08T17:57:03.264Z,6.89
2023-01-08T18:02:05.246Z,6.80
2023-01-08T18:07:07.229Z,6.75
2023-01-08T18:12:09.387Z,6.71
2023-01-08T18:17:11.576Z,6.71
2023-01-08T18:22:13.561Z,6.68
2023-01-08T18:27:15.327Z,6.61
2023-01-08T18:32:17.493Z,6.56
2023-01-08T18:37:19.402Z,6.53
2023-01-08T18:42:34.125Z,6.52
2023-01-08T18:48:02.794Z,6.46
2023-01-08T18:53:06.129Z,6.40
2023-01-08T18:58:08.007Z,6.35
2023-01-08T19:03:12.369Z,6.29
2023-01-08T19:08:14.202Z,6.25
2023-01-08T19:13:16.618Z,6.20
2023-01-08T19:18:18.432Z,6.17
2023-01-08T19:23:20.256Z,6.17
2023-01-08T19:28:22.157Z,6.15
2023-01-08T19:33:24.024Z,6.13
2023-01-08T19:38:26.054Z,6.13
2023-01-08T19:43:43.219Z,6.13
2023-01-08T19:48:45.686Z,6.15
2023-01-08T19:53:49.996Z,6.19
2023-01-08T19:58:51.809Z,6.24
2023-01-08T20:03:54.611Z,6.26
2023-01-08T20:08:59.019Z,6.26
2023-01-08T20:14:02.887Z,6.27
2023-01-08T20:19:04.832Z,6.31
2023-01-08T20:24:11.267Z,6.35
2023-01-08T20:29:14.978Z,6.38
2023-01-08T20:34:17.238Z,6.42
2023-01-08T20:39:19.988Z,6.43
2023-01-08T20:44:28.074Z,6.41
2023-01-08T20:49:30.035Z,6.41
2023-01-08T20:54:32.177Z,6.39
2023-01-08T20:59:34.244Z,6.40
2023-01-08T21:04:38.043Z,6.39
2023-01-08T21:09:40.464Z,6.38
2023-01-08T21:14:42.433Z,6.33
2023-01-08T21:24:48.485Z,6.26
2023-01-08T21:30:16.040Z,6.23
2023-01-08T21:35:17.821Z,6.20
2023-01-08T21:40:21.896Z,6.16
2023-01-08T21:45:27.519Z,6.09
2023-01-08T21:50:29.533Z,6.02
2023-01-08T21:55:33.660Z,6.01
2023-01-08T22:00:39.748Z,5.98
2023-01-08T22:05:41.697Z,5.89
2023-01-08T22:10:43.926Z,5.82
2023-01-08T22:15:45.755Z,5.85
2023-01-08T22:20:48.606Z,5.92
2023-01-08T22:25:50.457Z,5.96
2023-01-08T22:30:52.645Z,5.96
2023-01-08T22:35:57.080Z,5.93
2023-01-08T22:40:59.481Z,5.91
2023-01-08T22:46:01.385Z,5.95
2023-01-08T22:51:03.584Z,6.00
2023-01-08T22:56:11.983Z,5.99
2023-01-08T23:01:23.004Z,6.00
2023-01-08T23:06:26.915Z,5.99
2023-01-08T23:11:29.050Z,5.97
2023-01-08T23:16:31.071Z,5.96
2023-01-08T23:21:33.082Z,5.98
2023-01-08T23:26:37.762Z,6.02
2023-01-08T23:31:39.786Z,6.09
2023-01-08T23:36:43.010Z,6.15
2023-01-08T23:41:45.016Z,6.13
2023-01-08T23:46:46.864Z,6.12
2023-01-08T23:51:49.093Z,6.08
2023-01-08T23:56:50.979Z,6.07
